createdAt,value
2023-09-14T00:01:31.983Z,91.18
2023-09-14T00:03:58.803Z,91.25
2023-09-14T00:06:25.386Z,91.22
2023-09-14T00:08:51.924Z,90.46
2023-09-14T00:11:18.363Z,90.45
2023-09-14T00:13:44.901Z,90.59
2023-09-14T00:16:11.558Z,90.89
2023-09-14T00:18:38.186Z,91.51
2023-09-14T00:21:04.881Z,91.77
2023-09-14T00:23:31.331Z,91.23
2023-09-14T00:25:57.794Z,91.21
2023-09-14T00:28:24.402Z,90.90
2023-09-14T00:30:54.318Z,90.05
2023-09-14T00:33:21.870Z,89.51
2023-09-14T00:35:48.333Z,90.37
2023-09-14T00:38:15.094Z,90.61
2023-09-14T00:40:41.558Z,90.39
2023-09-14T00:43:08.394Z,90.84
2023-09-14T00:45:35.172Z,91.67
2023-09-14T00:48:03.708Z,91.02
2023-09-14T00:50:31.181Z,90.36
2023-09-14T00:53:00.063Z,90.96
2023-09-14T00:55:27.000Z,90.63
2023-09-14T00:57:53.752Z,90.81
2023-09-14T01:00:20.273Z,91.45
2023-09-14T01:02:47.336Z,91.16
2023-09-14T01:05:17.588Z,91.21
2023-09-14T01:07:44.175Z,92.65
2023-09-14T01:10:17.070Z,90.48
2023-09-14T01:12:44.354Z,89.76
2023-09-14T01:15:17.117Z,90.71
2023-09-14T01:18:02.352Z,91.62
2023-09-14T01:20:32.372Z,90.57
2023-09-14T01:23:10.505Z,91.42
2023-09-14T01:25:43.990Z,91.43
2023-09-14T01:28:11.140Z,91.66
2023-09-14T01:30:40.525Z,91.28
2023-09-14T01:33:08.128Z,90.38
2023-09-14T01:35:38.880Z,90.08
2023-09-14T01:38:05.739Z,90.42
2023-09-14T01:40:33.808Z,91.25
2023-09-14T01:43:00.789Z,91.75
2023-09-14T01:45:27.229Z,91.61
2023-09-14T01:47:54.459Z,91.27
2023-09-14T01:50:20.949Z,91.33
2023-09-14T01:52:47.475Z,91.64
2023-09-14T01:55:14.490Z,91.82
2023-09-14T01:57:41.051Z,92.28
2023-09-14T02:00:07.892Z,92.35
2023-09-14T02:02:34.375Z,91.89
2023-09-14T02:05:00.866Z,92.17
2023-09-14T02:07:27.292Z,90.40
2023-09-14T02:09:53.742Z,91.49
2023-09-14T02:12:21.697Z,91.91
2023-09-14T02:14:48.215Z,91.67
2023-09-14T02:17:14.654Z,91.73
2023-09-14T02:19:41.097Z,91.97
2023-09-14T02:22:07.535Z,92.43
2023-09-14T02:24:34.120Z,92.51
2023-09-14T02:27:00.716Z,91.55
2023-09-14T02:29:27.175Z,91.73
2023-09-14T02:46:49.278Z,98.31
2023-09-14T02:49:15.916Z,96.36
2023-09-14T02:51:42.610Z,95.83
2023-09-14T02:54:09.347Z,94.97
2023-09-14T02:56:35.795Z,93.51
2023-09-14T02:59:03.083Z,94.36
2023-09-14T03:01:31.228Z,93.44
2023-09-14T03:03:58.530Z,92.59
2023-09-14T03:06:25.420Z,91.50
2023-09-14T03:09:25.747Z,90.42
2023-09-14T03:11:52.526Z,91.98
2023-09-14T03:14:19.002Z,92.14
2023-09-14T03:16:45.626Z,92.60
2023-09-14T03:19:12.485Z,91.49
2023-09-14T03:21:39.159Z,91.49
2023-09-14T03:24:05.964Z,92.42
2023-09-14T03:26:32.449Z,91.88
2023-09-14T03:28:58.976Z,91.47
2023-09-14T03:31:26.891Z,91.09
2023-09-14T03:33:53.997Z,91.88
2023-09-14T03:36:21.319Z,91.13
2023-09-14T03:38:48.179Z,90.55
2023-09-14T03:41:15.315Z,90.04
2023-09-14T03:43:42.336Z,89.42
2023-09-14T03:46:10.404Z,90.49
2023-09-14T03:48:37.405Z,89.83
2023-09-14T03:51:05.022Z,89.36
2023-09-14T03:53:34.796Z,89.56
2023-09-14T03:56:01.665Z,89.72
2023-09-14T03:58:28.356Z,89.49
2023-09-14T04:00:56.440Z,89.54
2023-09-14T04:03:23.409Z,89.22
2023-09-14T04:05:50.140Z,89.69
2023-09-14T04:08:16.960Z,88.69
2023-09-14T04:10:43.482Z,88.76
2023-09-14T04:13:34.262Z,90.63
2023-09-14T04:16:02.859Z,89.41
2023-09-14T04:18:30.306Z,89.50
2023-09-14T04:20:56.882Z,89.31
2023-09-14T04:23:23.512Z,90.63
2023-09-14T04:25:50.481Z,90.30
2023-09-14T04:28:18.940Z,90.60
2023-09-14T04:30:50.832Z,90.51
2023-09-14T04:33:18.391Z,89.42
2023-09-14T04:35:45.470Z,88.74
2023-09-14T04:38:12.222Z,87.86
2023-09-14T04:40:39.968Z,89.13
2023-09-14T04:43:06.764Z,88.92
2023-09-14T04:45:33.777Z,88.66
2023-09-14T04:48:01.344Z,88.29
2023-09-14T04:50:28.733Z,87.49
2023-09-14T04:53:01.672Z,87.87
2023-09-14T04:55:28.211Z,88.32
2023-09-14T04:57:54.842Z,88.13
2023-09-14T05:00:21.484Z,87.96
2023-09-14T05:02:48.115Z,88.63
2023-09-14T05:05:14.726Z,89.15
2023-09-14T05:07:44.165Z,89.38
2023-09-14T05:10:11.704Z,88.36
2023-09-14T05:12:38.579Z,88.50
2023-09-14T05:15:05.646Z,89.14
2023-09-14T05:17:32.523Z,89.38
2023-09-14T05:19:59.220Z,88.82
2023-09-14T05:22:26.982Z,88.47
2023-09-14T05:24:54.471Z,87.79
2023-09-14T05:27:21.231Z,88.21
2023-09-14T05:29:48.104Z,87.98
2023-09-14T05:32:15.392Z,88.69
2023-09-14T05:34:42.456Z,88.24
2023-09-14T05:37:09.652Z,88.49
2023-09-14T05:39:36.437Z,88.29
2023-09-14T05:42:03.984Z,88.45
2023-09-14T05:44:36.564Z,90.51
2023-09-14T05:47:03.990Z,91.17
2023-09-14T05:49:30.983Z,89.81
2023-09-14T05:51:58.758Z,90.04
2023-09-14T05:54:25.565Z,89.39
2023-09-14T05:56:52.296Z,89.06
2023-09-14T05:59:31.289Z,89.58
2023-09-14T06:01:59.726Z,89.83
2023-09-14T06:04:26.507Z,88.97
2023-09-14T06:07:10.882Z,89.69
2023-09-14T06:09:38.392Z,89.34
2023-09-14T06:12:05.624Z,88.06
2023-09-14T06:14:34.209Z,88.09
2023-09-14T06:17:02.473Z,88.57
2023-09-14T06:19:29.652Z,88.10
2023-09-14T06:21:56.430Z,86.78
2023-09-14T06:24:23.319Z,87.65
2023-09-14T06:26:52.659Z,88.73
2023-09-14T06:29:19.643Z,87.86
2023-09-14T06:31:46.607Z,87.10
2023-09-14T06:34:13.679Z,85.79
2023-09-14T06:36:40.654Z,86.16
2023-09-14T06:39:10.063Z,86.57
2023-09-14T06:41:46.362Z,84.76
2023-09-14T06:44:15.462Z,84.47
2023-09-14T06:46:45.005Z,85.65
2023-09-14T06:49:11.938Z,85.19
2023-09-14T06:51:38.631Z,85.40
2023-09-14T06:54:06.098Z,85.78
2023-09-14T06:56:37.700Z,86.04
2023-09-14T06:59:04.544Z,85.46
2023-09-14T07:01:31.465Z,85.31
2023-09-14T07:03:58.437Z,84.72
2023-09-14T07:06:25.220Z,84.16
2023-09-14T07:08:52.132Z,84.26
2023-09-14T07:11:19.611Z,84.46
2023-09-14T07:13:46.370Z,84.16
2023-09-14T07:16:13.183Z,85.52
2023-09-14T07:18:39.674Z,85.75
2023-09-14T07:21:06.183Z,85.50
2023-09-14T07:23:32.638Z,85.83
2023-09-14T07:25:59.127Z,85.41
2023-09-14T07:28:25.683Z,84.77
2023-09-14T07:30:53.212Z,84.04
2023-09-14T07:33:20.288Z,84.17
2023-09-14T07:35:46.935Z,84.22
2023-09-14T07:38:14.042Z,84.11
2023-09-14T07:40:41.964Z,83.78
2023-09-14T07:43:08.695Z,83.60
2023-09-14T07:45:35.316Z,83.17
2023-09-14T07:48:04.033Z,83.91
2023-09-14T07:50:30.565Z,83.24
2023-09-14T07:52:57.209Z,81.61
2023-09-14T07:55:24.442Z,80.76
2023-09-14T07:57:50.995Z,81.45
2023-09-14T08:00:17.517Z,82.39
2023-09-14T08:02:44.304Z,81.67
2023-09-14T08:05:10.847Z,79.89
2023-09-14T08:07:37.580Z,78.97
2023-09-14T08:10:04.728Z,78.56
2023-09-14T08:12:31.240Z,76.10
2023-09-14T08:14:57.830Z,76.43
2023-09-14T08:17:24.377Z,76.71
2023-09-14T08:19:50.954Z,76.63
2023-09-14T08:22:24.005Z,75.17
2023-09-14T08:24:53.956Z,74.65
2023-09-14T08:27:20.563Z,75.06
2023-09-14T08:29:47.319Z,73.36
2023-09-14T08:32:14.281Z,74.15
2023-09-14T08:34:40.966Z,72.51
2023-09-14T08:37:12.171Z,70.46
2023-09-14T08:39:39.489Z,70.02
2023-09-14T08:42:06.074Z,72.36
2023-09-14T08:44:35.841Z,73.57
2023-09-14T08:47:33.227Z,68.53
2023-09-14T08:50:01.622Z,68.19
2023-09-14T08:52:28.741Z,69.19
2023-09-14T08:54:57.677Z,69.16
2023-09-14T08:57:28.655Z,70.45
2023-09-14T09:00:00.604Z,68.69
2023-09-14T09:02:28.875Z,69.27
2023-09-14T09:04:55.697Z,67.40
2023-09-14T09:07:22.520Z,72.33
2023-09-14T09:09:50.567Z,70.44
2023-09-14T09:12:18.379Z,71.44
2023-09-14T09:14:45.502Z,71.76
2023-09-14T09:17:17.641Z,70.46
2023-09-14T09:19:53.861Z,66.18
2023-09-14T09:22:20.981Z,66.84
2023-09-14T09:24:47.985Z,68.30
2023-09-14T09:27:28.294Z,67.90
2023-09-14T09:30:01.819Z,69.29
2023-09-14T09:32:28.507Z,72.62
2023-09-14T09:34:55.056Z,70.17
2023-09-14T09:37:24.357Z,64.10
2023-09-14T09:39:52.432Z,64.03
2023-09-14T09:42:20.861Z,64.94
2023-09-14T09:44:48.315Z,67.21
2023-09-14T09:47:14.872Z,64.22
2023-09-14T09:49:41.407Z,64.77
2023-09-14T09:52:13.991Z,63.96
2023-09-14T09:54:41.249Z,63.34
2023-09-14T09:57:08.856Z,65.37
2023-09-14T09:59:35.400Z,62.26
2023-09-14T10:02:01.936Z,60.63
2023-09-14T10:04:31.471Z,63.03
2023-09-14T10:07:00.348Z,58.54
2023-09-14T10:09:34.008Z,58.93
2023-09-14T10:12:04.584Z,60.78
2023-09-14T10:14:33.525Z,63.56
2023-09-14T10:17:04.662Z,63.50
2023-09-14T10:19:32.299Z,64.07
2023-09-14T10:22:01.466Z,61.61
2023-09-14T10:24:28.395Z,61.67
2023-09-14T10:26:55.149Z,61.06
2023-09-14T10:29:24.369Z,60.41
2023-09-14T10:31:54.225Z,59.84
2023-09-14T10:34:21.458Z,61.38
2023-09-14T10:36:51.585Z,59.73
2023-09-14T10:39:23.559Z,58.39
2023-09-14T10:41:50.326Z,57.83
2023-09-14T10:44:16.930Z,56.83
2023-09-14T10:46:45.669Z,57.37
2023-09-14T10:49:18.448Z,55.61
2023-09-14T10:51:46.382Z,54.34
2023-09-14T10:54:14.228Z,55.95
2023-09-14T10:56:40.881Z,56.01
2023-09-14T10:59:11.271Z,56.20
2023-09-14T11:04:20.679Z,56.28
2023-09-14T11:06:54.004Z,57.56
2023-09-14T11:09:22.651Z,53.99
2023-09-14T11:11:54.844Z,56.57
2023-09-14T11:14:26.654Z,58.15
2023-09-14T11:16:57.439Z,60.53
2023-09-14T11:19:42.968Z,60.80
2023-09-14T11:22:18.350Z,61.50
2023-09-14T11:24:46.517Z,56.72
2023-09-14T11:27:21.299Z,53.42
2023-09-14T11:29:51.375Z,54.02
2023-09-14T11:32:25.424Z,54.56
2023-09-14T11:34:57.846Z,54.55
2023-09-14T11:37:29.188Z,51.91
2023-09-14T11:39:59.564Z,54.18
2023-09-14T11:42:29.579Z,52.42
2023-09-14T11:45:07.227Z,50.62
2023-09-14T11:47:41.045Z,51.83
2023-09-14T11:50:11.388Z,53.70
2023-09-14T11:52:38.197Z,55.37
2023-09-14T11:55:05.962Z,57.24
2023-09-14T11:57:32.910Z,55.99
2023-09-14T12:00:00.532Z,54.77
2023-09-14T12:02:27.504Z,50.23
2023-09-14T12:04:54.418Z,51.21
2023-09-14T12:07:24.591Z,53.02
2023-09-14T12:09:51.257Z,52.15
2023-09-14T12:12:31.846Z,49.90
2023-09-14T12:14:59.197Z,52.29
2023-09-14T12:17:27.620Z,53.23
2023-09-14T12:19:59.047Z,51.99
2023-09-14T12:22:28.517Z,53.50
2023-09-14T12:24:56.403Z,54.30
2023-09-14T12:27:23.755Z,51.00
2023-09-14T12:29:51.292Z,52.32
2023-09-14T12:32:18.626Z,50.39
2023-09-14T12:34:46.044Z,50.98
2023-09-14T12:37:17.659Z,50.78
2023-09-14T12:40:02.784Z,54.49
2023-09-14T12:42:29.498Z,53.12
2023-09-14T12:44:56.059Z,50.36
2023-09-14T12:47:22.758Z,48.94
2023-09-14T12:49:49.294Z,49.60
2023-09-14T12:52:16.623Z,50.58
2023-09-14T12:54:46.105Z,48.52
2023-09-14T12:57:16.963Z,49.47
2023-09-14T13:00:13.053Z,45.91
2023-09-14T13:02:52.925Z,48.65
2023-09-14T13:05:28.268Z,51.82
2023-09-14T13:07:59.297Z,49.96
2023-09-14T13:10:29.204Z,46.92
2023-09-14T13:13:07.675Z,48.03
2023-09-14T13:15:36.014Z,47.86
2023-09-14T13:18:09.977Z,48.15
2023-09-14T13:20:38.896Z,45.47
2023-09-14T13:23:07.050Z,47.56
2023-09-14T13:25:34.019Z,48.68
2023-09-14T13:28:08.089Z,46.21
2023-09-14T13:30:36.245Z,44.28
2023-09-14T13:33:08.015Z,46.88
2023-09-14T13:35:37.724Z,44.49
2023-09-14T13:38:14.555Z,45.81
2023-09-14T13:40:41.245Z,42.96
2023-09-14T13:43:10.130Z,46.16
2023-09-14T13:45:53.951Z,45.73
2023-09-14T13:52:18.820Z,44.74
2023-09-14T13:54:47.968Z,46.40
2023-09-14T13:57:20.833Z,47.41
2023-09-14T13:59:50.700Z,46.60
2023-09-14T14:02:19.737Z,45.54
2023-09-14T14:04:55.240Z,51.13
2023-09-14T14:07:24.377Z,52.76
2023-09-14T14:09:56.194Z,47.98
2023-09-14T14:12:32.278Z,44.21
2023-09-14T14:15:07.084Z,46.73
2023-09-14T14:17:34.561Z,47.48
2023-09-14T14:20:01.349Z,46.82
2023-09-14T14:22:30.496Z,50.36
2023-09-14T14:25:05.743Z,47.87
2023-09-14T14:27:33.825Z,47.83
2023-09-14T14:30:49.553Z,47.03
2023-09-14T14:33:16.194Z,46.88
2023-09-14T14:35:44.842Z,44.04
2023-09-14T14:38:11.421Z,45.60
2023-09-14T14:43:52.278Z,47.95
2023-09-14T14:46:19.669Z,44.07
2023-09-14T14:48:47.294Z,44.28
2023-09-14T14:51:14.101Z,47.34
2023-09-14T14:53:42.854Z,47.40
2023-09-14T14:56:09.543Z,46.04
2023-09-14T14:58:38.851Z,43.66
2023-09-14T15:01:11.490Z,46.35
2023-09-14T15:03:42.526Z,50.58
2023-09-14T15:06:12.256Z,49.72
2023-09-14T15:08:39.959Z,53.01
2023-09-14T15:11:09.124Z,51.41
2023-09-14T15:13:42.680Z,48.67
2023-09-14T15:16:09.618Z,53.67
2023-09-14T15:18:38.812Z,53.64
2023-09-14T15:21:06.552Z,51.79
2023-09-14T15:23:33.947Z,55.97
2023-09-14T15:26:33.564Z,56.52
2023-09-14T15:29:00.975Z,58.01
2023-09-14T15:31:27.760Z,55.81
2023-09-14T15:34:10.372Z,59.52
2023-09-14T15:36:36.993Z,51.84
2023-09-14T15:39:04.573Z,53.95
2023-09-14T15:41:31.137Z,55.19
2023-09-14T15:43:57.621Z,53.00
2023-09-14T15:46:25.543Z,54.27
2023-09-14T15:53:25.372Z,57.61
2023-09-14T15:55:54.799Z,53.89
2023-09-14T15:58:21.877Z,57.18
2023-09-14T16:00:58.754Z,60.21
2023-09-14T16:03:25.722Z,59.07
2023-09-14T16:05:53.889Z,64.65
2023-09-14T16:08:20.703Z,62.73
2023-09-14T16:10:56.297Z,62.04
2023-09-14T16:13:22.802Z,65.80
2023-09-14T16:15:53.402Z,64.51
2023-09-14T16:18:20.344Z,60.97
2023-09-14T16:20:47.655Z,63.86
2023-09-14T16:23:14.480Z,64.67
2023-09-14T16:25:41.453Z,66.09
2023-09-14T16:28:09.234Z,67.12
2023-09-14T16:30:38.454Z,65.72
2023-09-14T16:33:05.594Z,67.02
2023-09-14T16:35:32.316Z,68.31
2023-09-14T16:40:51.503Z,68.10
2023-09-14T16:43:20.745Z,69.35
2023-09-14T16:45:48.957Z,68.68
2023-09-14T16:48:15.949Z,68.72
2023-09-14T16:51:42.593Z,69.52
2023-09-14T16:54:31.573Z,69.33
2023-09-14T17:00:13.205Z,69.81
2023-09-14T17:02:40.044Z,69.56
2023-09-14T17:08:22.778Z,69.86
2023-09-14T17:11:20.387Z,70.02
2023-09-14T17:14:54.092Z,71.26
2023-09-14T17:18:03.933Z,72.14
2023-09-14T17:20:30.831Z,72.07
2023-09-14T17:22:59.035Z,71.81
2023-09-14T17:26:08.242Z,71.38
2023-09-14T17:28:34.796Z,72.29
2023-09-14T17:31:01.687Z,73.47
2023-09-14T17:33:28.489Z,73.61
2023-09-14T17:35:55.157Z,74.70
2023-09-14T17:38:24.709Z,75.41
2023-09-14T17:40:52.042Z,75.10
2023-09-14T17:43:22.042Z,74.89
2023-09-14T17:45:51.460Z,74.93
2023-09-14T17:48:24.836Z,75.17
2023-09-14T17:50:56.186Z,76.03
2023-09-14T17:53:24.098Z,75.77
2023-09-14T17:55:51.112Z,76.34
2023-09-14T17:58:19.778Z,76.87
2023-09-14T18:01:09.260Z,77.42
2023-09-14T18:03:38.778Z,77.50
2023-09-14T18:06:05.607Z,78.00
2023-09-14T18:08:32.512Z,77.53
2023-09-14T18:11:01.754Z,79.17
2023-09-14T18:13:30.116Z,78.63
2023-09-14T18:15:56.961Z,79.08
2023-09-14T18:18:26.297Z,79.68
2023-09-14T18:21:14.759Z,80.59
2023-09-14T18:23:43.080Z,80.22
2023-09-14T18:26:09.981Z,80.11
2023-09-14T18:29:08.328Z,79.65
2023-09-14T18:32:42.452Z,79.38
2023-09-14T18:43:02.326Z,81.14
2023-09-14T18:53:56.894Z,82.34
2023-09-14T19:02:00.644Z,82.39
2023-09-14T19:09:16.565Z,82.36
2023-09-14T19:16:17.643Z,82.46
2023-09-14T19:21:38.513Z,82.71
2023-09-14T19:37:34.387Z,84.01
2023-09-14T19:40:42.409Z,83.69
2023-09-14T19:47:28.020Z,84.27
2023-09-14T19:50:22.610Z,84.08
2023-09-14T20:03:45.622Z,84.30
2023-09-14T20:06:15.233Z,83.91
2023-09-14T20:08:57.533Z,84.56
2023-09-14T20:11:51.288Z,84.03
2023-09-14T20:14:23.985Z,84.34
2023-09-14T20:17:02.409Z,84.29
2023-09-14T20:30:54.262Z,86.58
2023-09-14T20:36:46.808Z,85.61
2023-09-14T20:39:56.449Z,85.93
2023-09-14T20:42:29.705Z,85.75
2023-09-14T20:45:25.879Z,84.57
2023-09-14T20:48:44.120Z,84.96
2023-09-14T20:51:37.352Z,85.08
2023-09-14T20:54:04.010Z,84.65
2023-09-14T20:56:33.180Z,85.82
2023-09-14T20:59:14.701Z,86.84
2023-09-14T21:01:48.746Z,86.97
2023-09-14T21:04:18.349Z,86.13
2023-09-14T21:07:03.433Z,86.46
2023-09-14T21:09:30.160Z,86.90
2023-09-14T21:11:56.767Z,85.55
2023-09-14T21:14:27.990Z,85.93
2023-09-14T21:16:55.766Z,86.36
2023-09-14T21:19:26.975Z,85.66
2023-09-14T21:25:54.419Z,87.12
2023-09-14T21:28:21.666Z,86.89
2023-09-14T21:30:48.435Z,87.16
2023-09-14T21:33:15.181Z,86.58
2023-09-14T21:35:41.735Z,88.14
2023-09-14T21:38:08.332Z,87.73
2023-09-14T21:40:36.594Z,87.22
2023-09-14T21:43:39.576Z,87.52
2023-09-14T21:46:07.654Z,88.13
2023-09-14T21:48:35.312Z,87.21
2023-09-14T21:51:02.610Z,87.14
2023-09-14T21:53:30.121Z,87.11
2023-09-14T21:55:56.982Z,87.95
2023-09-14T21:58:24.433Z,87.04
2023-09-14T22:00:51.313Z,86.97
2023-09-14T22:03:19.856Z,87.13
2023-09-14T22:05:51.510Z,86.37
2023-09-14T22:08:19.450Z,86.99
2023-09-14T22:10:47.332Z,86.98
2023-09-14T22:13:14.944Z,86.66
2023-09-14T22:15:44.132Z,86.80
2023-09-14T22:18:13.051Z,86.24
2023-09-14T22:20:39.821Z,86.39
2023-09-14T22:23:06.568Z,87.31
2023-09-14T22:25:36.055Z,87.16
2023-09-14T22:28:03.868Z,87.59
2023-09-14T22:30:33.301Z,87.78
2023-09-14T22:33:03.227Z,87.21
2023-09-14T22:35:30.389Z,87.71
2023-09-14T22:37:57.073Z,87.52
2023-09-14T22:40:23.955Z,88.80
2023-09-14T22:42:50.608Z,87.74
2023-09-14T22:45:17.994Z,88.14
2023-09-14T22:47:44.760Z,87.62
2023-09-14T22:50:11.715Z,88.04
2023-09-14T22:52:38.346Z,87.63
2023-09-14T22:55:12.360Z,87.71
2023-09-14T22:57:40.378Z,88.77
2023-09-14T23:00:10.390Z,89.45
2023-09-14T23:02:38.137Z,88.89
2023-09-14T23:05:06.580Z,88.99
2023-09-14T23:07:33.377Z,88.62
2023-09-14T23:10:02.248Z,87.98
2023-09-14T23:12:29.525Z,88.95
2023-09-14T23:14:56.370Z,88.32
2023-09-14T23:17:23.488Z,88.16
2023-09-14T23:19:50.260Z,89.09
2023-09-14T23:22:16.809Z,88.79
2023-09-14T23:24:43.572Z,89.51
2023-09-14T23:27:10.527Z,88.33
2023-09-14T23:29:37.088Z,88.60
2023-09-14T23:32:03.726Z,87.87
2023-09-14T23:34:33.040Z,87.60
2023-09-14T23:36:59.796Z,88.17
2023-09-14T23:39:26.508Z,88.61
2023-09-14T23:41:53.204Z,87.99
2023-09-14T23:44:19.817Z,88.28
2023-09-14T23:46:47.510Z,88.99
2023-09-14T23:49:15.357Z,87.90
2023-09-14T23:51:43.637Z,88.15
2023-09-14T23:54:16.165Z,88.95
2023-09-14T23:56:42.913Z,88.06
2023-09-14T23:59:10.911Z,88.08
